createdAt,value
2022-10-28T00:01:51.719Z,100415.44
2022-10-28T00:04:20.164Z,100414.78
2022-10-28T00:06:48.741Z,100408.03
2022-10-28T00:09:17.459Z,100409.59
2022-10-28T00:11:45.854Z,100392.09
2022-10-28T00:14:15.758Z,100418.28
2022-10-28T00:16:44.185Z,100423.47
2022-10-28T00:19:13.922Z,100404.50
2022-10-28T00:21:44.374Z,100414.34
2022-10-28T00:24:14.445Z,100389.34
2022-10-28T00:26:44.012Z,100405.97
2022-10-28T00:29:14.922Z,100411.00
2022-10-28T00:31:45.425Z,100405.09
2022-10-28T00:34:15.308Z,100404.31
2022-10-28T00:36:44.932Z,100373.78
2022-10-28T00:39:15.091Z,100421.66
2022-10-28T00:41:45.442Z,100417.63
2022-10-28T00:44:53.337Z,100417.00
2022-10-28T00:47:30.780Z,100392.09
2022-10-28T00:50:05.448Z,100376.38
2022-10-28T00:52:34.141Z,100405.03
2022-10-28T00:55:10.350Z,100385.94
2022-10-28T00:57:39.455Z,100415.66
2022-10-28T01:00:09.469Z,100417.50
2022-10-28T01:02:48.451Z,100373.38
2022-10-28T01:05:19.208Z,100381.31
2022-10-28T01:07:47.741Z,100392.63
2022-10-28T01:10:16.619Z,100394.19
2022-10-28T01:12:57.461Z,100394.47
2022-10-28T01:15:31.558Z,100413.41
2022-10-28T01:18:08.103Z,100403.16
2022-10-28T01:20:50.656Z,100374.56
2022-10-28T01:23:24.751Z,100399.78
2022-10-28T01:26:18.517Z,100404.84
2022-10-28T01:29:24.668Z,100404.63
2022-10-28T01:31:56.011Z,100388.03
2022-10-28T01:34:30.356Z,100356.16
2022-10-28T01:37:02.052Z,100357.94
2022-10-28T01:39:34.798Z,100391.66
2022-10-28T01:42:13.193Z,100370.94
2022-10-28T01:44:48.065Z,100394.66
2022-10-28T01:47:18.704Z,100398.16
2022-10-28T01:49:49.781Z,100389.66
2022-10-28T01:52:22.427Z,100395.84
2022-10-28T01:54:52.967Z,100390.78
2022-10-28T01:57:21.357Z,100390.69
2022-10-28T01:59:50.028Z,100392.47
2022-10-28T02:02:20.287Z,100361.41
2022-10-28T02:04:48.663Z,100393.41
2022-10-28T02:07:18.063Z,100397.47
2022-10-28T02:09:56.842Z,100396.84
2022-10-28T02:12:30.270Z,100364.03
2022-10-28T02:15:32.488Z,100383.28
2022-10-28T02:18:27.632Z,100372.63
2022-10-28T02:20:57.795Z,100390.13
2022-10-28T02:23:30.783Z,100356.50
2022-10-28T02:26:02.552Z,100399.09
2022-10-28T02:28:42.278Z,100393.19
2022-10-28T02:31:18.421Z,100389.88
2022-10-28T02:33:52.839Z,100378.03
2022-10-28T02:36:23.462Z,100375.97
2022-10-28T02:38:54.763Z,100376.00
2022-10-28T02:41:26.851Z,100388.22
2022-10-28T02:43:57.307Z,100396.16
2022-10-28T02:46:26.299Z,100383.19
2022-10-28T02:48:57.714Z,100400.53
2022-10-28T02:51:30.360Z,100384.16
2022-10-28T02:54:03.583Z,100405.03
2022-10-28T02:56:34.862Z,100375.69
2022-10-28T02:59:03.242Z,100386.91
2022-10-28T03:01:31.796Z,100399.91
2022-10-28T03:04:01.712Z,100406.91
2022-10-28T03:06:30.169Z,100353.19
2022-10-28T03:08:58.750Z,100379.19
2022-10-28T03:11:27.218Z,100407.75
2022-10-28T03:13:55.601Z,100360.13
2022-10-28T03:16:24.025Z,100399.00
2022-10-28T03:18:52.457Z,100376.03
2022-10-28T03:21:22.315Z,100401.22
2022-10-28T03:23:50.625Z,100363.38
2022-10-28T03:26:18.924Z,100397.19
2022-10-28T03:28:47.590Z,100363.34
2022-10-28T03:31:17.232Z,100390.97
2022-10-28T03:33:45.599Z,100366.78
2022-10-28T03:36:13.895Z,100364.78
2022-10-28T03:38:43.657Z,100373.44
2022-10-28T03:41:11.954Z,100349.72
2022-10-28T03:43:40.256Z,100386.34
2022-10-28T03:46:08.612Z,100384.72
2022-10-28T03:48:36.950Z,100382.16
2022-10-28T03:51:05.615Z,100387.56
2022-10-28T03:53:33.984Z,100366.03
2022-10-28T03:56:04.564Z,100390.31
2022-10-28T03:58:35.096Z,100386.28
2022-10-28T04:01:05.957Z,100383.84
2022-10-28T04:03:34.452Z,100372.81
2022-10-28T04:06:02.777Z,100368.53
2022-10-28T04:08:31.130Z,100365.28
2022-10-28T04:10:59.473Z,100367.94
2022-10-28T04:13:29.405Z,100372.41
2022-10-28T04:15:57.789Z,100347.38
2022-10-28T04:18:26.344Z,100369.19
2022-10-28T04:20:54.856Z,100341.41
2022-10-28T04:23:23.329Z,100369.22
2022-10-28T04:25:55.386Z,100366.66
2022-10-28T04:28:24.642Z,100364.06
2022-10-28T04:30:54.462Z,100332.81
2022-10-28T04:33:22.799Z,100330.66
2022-10-28T04:35:51.350Z,100353.84
2022-10-28T04:38:19.725Z,100364.91
2022-10-28T04:40:49.225Z,100343.19
2022-10-28T04:43:17.737Z,100354.78
2022-10-28T04:45:47.624Z,100367.69
2022-10-28T04:48:17.420Z,100347.94
2022-10-28T04:50:45.966Z,100361.09
2022-10-28T04:53:14.652Z,100367.97
2022-10-28T04:55:43.013Z,100362.78
2022-10-28T04:58:11.765Z,100360.41
2022-10-28T05:00:40.121Z,100363.78
2022-10-28T05:03:08.457Z,100338.59
2022-10-28T05:05:38.491Z,100368.31
2022-10-28T05:08:07.360Z,100354.56
2022-10-28T05:10:37.203Z,100367.50
2022-10-28T05:13:05.578Z,100364.19
2022-10-28T05:15:34.042Z,100360.00
2022-10-28T05:18:02.424Z,100343.34
2022-10-28T05:20:30.807Z,100352.03
2022-10-28T05:23:00.834Z,100373.66
2022-10-28T05:25:29.464Z,100364.38
2022-10-28T05:28:00.496Z,100358.16
2022-10-28T05:30:29.381Z,100375.50
2022-10-28T05:33:02.536Z,100381.63
2022-10-28T05:35:31.115Z,100367.03
2022-10-28T05:38:00.944Z,100368.97
2022-10-28T05:40:29.371Z,100376.69
2022-10-28T05:42:57.703Z,100375.91
2022-10-28T05:45:26.164Z,100345.63
2022-10-28T05:47:54.931Z,100314.28
2022-10-28T05:50:23.599Z,100379.44
2022-10-28T05:52:54.688Z,100376.13
2022-10-28T05:55:25.771Z,100361.41
2022-10-28T05:57:54.557Z,100367.72
2022-10-28T06:00:24.345Z,100363.44
2022-10-28T06:02:52.954Z,100335.69
2022-10-28T06:05:21.703Z,100372.28
2022-10-28T06:07:50.030Z,100371.50
2022-10-28T06:10:18.390Z,100367.19
2022-10-28T06:12:46.554Z,100375.88
2022-10-28T06:15:15.039Z,100370.72
2022-10-28T06:17:43.609Z,100366.47
2022-10-28T06:20:12.064Z,100378.75
2022-10-28T06:22:47.287Z,100382.31
2022-10-28T06:25:15.775Z,100370.28
2022-10-28T06:27:45.774Z,100352.94
2022-10-28T06:30:14.653Z,100376.47
2022-10-28T06:32:44.249Z,100371.38
2022-10-28T06:35:12.652Z,100363.69
2022-10-28T06:37:41.031Z,100358.63
2022-10-28T06:40:10.215Z,100330.94
2022-10-28T06:42:39.412Z,100344.97
2022-10-28T06:45:09.853Z,100349.41
2022-10-28T06:47:41.507Z,100346.88
2022-10-28T06:50:10.774Z,100349.56
2022-10-28T06:52:39.183Z,100342.72
2022-10-28T06:55:08.302Z,100351.50
2022-10-28T06:57:36.679Z,100352.34
2022-10-28T07:00:05.697Z,100352.25
2022-10-28T07:02:35.553Z,100342.94
2022-10-28T07:05:04.044Z,100341.34
2022-10-28T07:07:32.520Z,100338.66
2022-10-28T07:10:01.315Z,100335.53
2022-10-28T07:12:29.813Z,100338.84
2022-10-28T07:14:58.146Z,100338.13
2022-10-28T07:17:29.382Z,100327.81
2022-10-28T07:19:59.205Z,100334.13
2022-10-28T07:22:27.531Z,100314.44
2022-10-28T07:24:55.976Z,100340.63
2022-10-28T07:27:24.331Z,100339.06
2022-10-28T07:29:52.715Z,100338.41
2022-10-28T07:32:21.070Z,100336.81
2022-10-28T07:34:49.474Z,100317.94
2022-10-28T07:37:19.238Z,100332.69
2022-10-28T07:39:47.615Z,100334.59
2022-10-28T07:42:16.153Z,100310.44
2022-10-28T07:44:44.541Z,100339.19
2022-10-28T07:47:13.014Z,100333.19
2022-10-28T07:49:41.417Z,100298.59
2022-10-28T07:52:10.712Z,100329.00
2022-10-28T07:54:42.715Z,100292.66
2022-10-28T07:57:11.165Z,100337.75
2022-10-28T07:59:41.760Z,100335.28
2022-10-28T08:02:12.120Z,100283.50
2022-10-28T08:04:40.846Z,100313.00
2022-10-28T08:07:09.256Z,100326.06
2022-10-28T08:09:37.598Z,100333.97
2022-10-28T08:12:08.408Z,100332.16
2022-10-28T08:14:36.817Z,100332.22
2022-10-28T08:17:05.459Z,100321.84
2022-10-28T08:19:33.885Z,100308.97
2022-10-28T08:22:03.081Z,100335.84
2022-10-28T08:24:31.468Z,100332.47
2022-10-28T08:26:59.966Z,100333.38
2022-10-28T08:29:30.143Z,100331.63
2022-10-28T08:31:59.600Z,100328.19
2022-10-28T08:34:30.064Z,100317.81
2022-10-28T08:36:59.116Z,100320.44
2022-10-28T08:39:27.693Z,100321.44
2022-10-28T08:42:03.962Z,100322.38
2022-10-28T08:44:47.394Z,100307.75
2022-10-28T08:47:23.282Z,100309.50
2022-10-28T08:49:56.371Z,100303.44
2022-10-28T08:52:29.873Z,100312.94
2022-10-28T08:55:02.223Z,100297.41
2022-10-28T08:57:37.950Z,100303.50
2022-10-28T09:00:13.599Z,100301.81
2022-10-28T09:02:54.419Z,100306.16
2022-10-28T09:05:27.719Z,100289.75
2022-10-28T09:07:57.327Z,100284.56
2022-10-28T09:10:40.950Z,100311.34
2022-10-28T09:13:17.147Z,100292.31
2022-10-28T09:15:53.822Z,100293.16
2022-10-28T09:18:27.684Z,100292.31
2022-10-28T09:20:57.516Z,100267.28
2022-10-28T09:23:29.335Z,100301.84
2022-10-28T09:26:07.158Z,100272.50
2022-10-28T09:28:47.901Z,100278.56
2022-10-28T09:31:21.950Z,100255.25
2022-10-28T09:34:03.032Z,100279.44
2022-10-28T09:36:34.515Z,100271.69
2022-10-28T09:39:03.460Z,100253.56
2022-10-28T09:41:34.201Z,100251.84
2022-10-28T09:44:10.067Z,100273.44
2022-10-28T09:46:40.679Z,100256.19
2022-10-28T09:49:13.881Z,100270.94
2022-10-28T09:51:47.552Z,100238.97
2022-10-28T09:54:15.905Z,100255.41
2022-10-28T09:56:44.294Z,100257.09
2022-10-28T09:59:15.566Z,100251.94
2022-10-28T10:01:47.888Z,100248.50
2022-10-28T10:04:20.993Z,100240.72
2022-10-28T10:06:53.353Z,100248.47
2022-10-28T10:09:25.326Z,100229.50
2022-10-28T10:11:55.612Z,100231.22
2022-10-28T10:14:30.460Z,100237.25
2022-10-28T10:17:03.109Z,100231.19
2022-10-28T10:20:07.070Z,100236.41
2022-10-28T10:22:36.661Z,100232.91
2022-10-28T10:25:05.838Z,100211.34
2022-10-28T10:27:34.423Z,100222.56
2022-10-28T10:30:02.880Z,100214.78
2022-10-28T10:32:33.596Z,100221.69
2022-10-28T10:35:04.278Z,100200.09
2022-10-28T10:37:35.778Z,100190.63
2022-10-28T10:40:13.866Z,100208.72
2022-10-28T10:42:51.705Z,100219.94
2022-10-28T10:45:30.521Z,100219.94
2022-10-28T10:48:14.279Z,100134.50
2022-10-28T10:50:43.178Z,100216.50
2022-10-28T10:53:21.327Z,100212.19
2022-10-28T10:55:58.773Z,100209.59
2022-10-28T10:58:30.413Z,100199.22
2022-10-28T11:01:01.889Z,100173.34
2022-10-28T11:03:35.078Z,100164.69
2022-10-28T11:06:22.675Z,100189.75
2022-10-28T11:08:56.392Z,100162.13
2022-10-28T11:11:34.055Z,100169.00
2022-10-28T11:14:08.774Z,100184.53
2022-10-28T11:16:49.221Z,100181.09
2022-10-28T11:19:23.067Z,100180.22
2022-10-28T11:22:18.303Z,100192.31
2022-10-28T11:25:06.828Z,100175.00
2022-10-28T11:27:41.718Z,100180.19
2022-10-28T11:30:15.179Z,100189.66
2022-10-28T11:33:01.957Z,100181.03
2022-10-28T11:35:50.520Z,100197.41
2022-10-28T11:38:44.645Z,100174.13
2022-10-28T11:41:22.243Z,100192.28
2022-10-28T11:43:55.072Z,100191.44
2022-10-28T11:46:36.787Z,100159.50
2022-10-28T11:49:25.688Z,100180.16
2022-10-28T11:51:59.095Z,100153.41
2022-10-28T11:54:39.177Z,100149.13
2022-10-28T11:57:10.312Z,100166.38
2022-10-28T11:59:57.100Z,100160.34
2022-10-28T12:02:41.317Z,100164.66
2022-10-28T12:05:18.835Z,100162.94
2022-10-28T12:07:59.240Z,100159.44
2022-10-28T12:10:37.154Z,100156.00
2022-10-28T12:13:12.290Z,100149.13
2022-10-28T12:15:47.013Z,100141.38
2022-10-28T12:18:20.045Z,100135.31
2022-10-28T12:20:53.118Z,100134.44
2022-10-28T12:23:25.146Z,100133.59
2022-10-28T12:25:57.461Z,100151.69
2022-10-28T12:28:29.426Z,100150.84
2022-10-28T12:30:58.106Z,100149.97
2022-10-28T12:33:29.489Z,100127.53
2022-10-28T12:36:19.414Z,100149.13
2022-10-28T12:38:55.469Z,100144.81
2022-10-28T12:41:25.621Z,100134.47
2022-10-28T12:43:56.944Z,100141.38
2022-10-28T12:46:32.551Z,100124.13
2022-10-28T12:49:06.153Z,100139.66
2022-10-28T12:51:38.777Z,100131.03
2022-10-28T12:54:18.612Z,100131.88
2022-10-28T12:56:52.900Z,100136.22
2022-10-28T12:59:25.574Z,100142.25
2022-10-28T13:01:54.192Z,100131.03
2022-10-28T13:04:22.654Z,100122.38
2022-10-28T13:07:10.025Z,100118.94
2022-10-28T13:09:51.017Z,100138.78
2022-10-28T13:12:36.161Z,100135.34
2022-10-28T13:15:25.797Z,100136.22
2022-10-28T13:18:06.487Z,100126.72
2022-10-28T13:20:45.429Z,100129.28
2022-10-28T13:23:22.304Z,100125.00
2022-10-28T13:25:59.368Z,100093.88
2022-10-28T13:28:31.012Z,100109.44
2022-10-28T13:31:00.969Z,100134.47
2022-10-28T13:33:31.167Z,100137.97
2022-10-28T13:36:10.966Z,100136.22
2022-10-28T13:38:40.217Z,100117.22
2022-10-28T13:41:37.754Z,100140.53
2022-10-28T13:44:27.811Z,100143.13
2022-10-28T13:47:27.374Z,100126.72
2022-10-28T13:50:33.778Z,100127.59
2022-10-28T13:53:42.606Z,100121.53
2022-10-28T13:56:31.474Z,100120.66
2022-10-28T13:59:01.074Z,100110.28
2022-10-28T14:02:32.462Z,100109.44
2022-10-28T14:05:01.123Z,100090.44
2022-10-28T14:07:31.902Z,100106.84
2022-10-28T14:10:19.242Z,100105.13
2022-10-28T14:12:53.076Z,100096.47
2022-10-28T14:15:31.962Z,100100.81
2022-10-28T14:18:16.089Z,100103.41
2022-10-28T14:20:59.304Z,100104.25
2022-10-28T14:24:08.580Z,100081.81
2022-10-28T14:27:25.588Z,100111.16
2022-10-28T14:30:23.008Z,100077.50
2022-10-28T14:33:11.582Z,100103.38
2022-10-28T14:35:42.079Z,100104.25
2022-10-28T14:38:42.742Z,100106.84
2022-10-28T14:41:21.844Z,100093.91
2022-10-28T14:43:59.279Z,100072.31
2022-10-28T14:46:42.374Z,100105.13
2022-10-28T14:49:19.349Z,100081.81
2022-10-28T14:51:48.302Z,100085.25
2022-10-28T14:54:17.950Z,100092.16
2022-10-28T14:56:49.186Z,100088.72
2022-10-28T14:59:27.002Z,100106.84
2022-10-28T15:02:01.881Z,100107.72
2022-10-28T15:04:31.396Z,100067.13
2022-10-28T15:07:00.242Z,100098.19
2022-10-28T15:09:30.139Z,100094.75
2022-10-28T15:12:00.439Z,100093.91
2022-10-28T15:14:32.406Z,100066.28
2022-10-28T15:17:11.196Z,100090.44
2022-10-28T15:19:39.730Z,100074.91
2022-10-28T15:22:14.787Z,100080.94
2022-10-28T15:24:46.333Z,100083.53
2022-10-28T15:27:15.930Z,100077.47
2022-10-28T15:29:44.570Z,100074.88
2022-10-28T15:32:17.067Z,100064.53
2022-10-28T15:34:45.596Z,100034.28
2022-10-28T15:37:18.310Z,100067.97
2022-10-28T15:39:47.157Z,100070.56
2022-10-28T15:42:40.521Z,100067.09
2022-10-28T15:45:17.997Z,100067.09
2022-10-28T15:47:49.173Z,100061.91
2022-10-28T15:50:27.310Z,100057.59
2022-10-28T15:52:57.559Z,100056.75
2022-10-28T15:56:02.450Z,100063.63
2022-10-28T15:58:33.111Z,100057.59
2022-10-28T16:01:01.546Z,100072.28
2022-10-28T16:03:43.240Z,100064.50
2022-10-28T16:06:25.914Z,100050.69
2022-10-28T16:09:16.431Z,100067.94
2022-10-28T16:11:47.528Z,100084.34
2022-10-28T16:14:31.825Z,100074.00
2022-10-28T16:19:42.867Z,100072.28
2022-10-28T16:22:13.629Z,100071.38
2022-10-28T16:24:42.238Z,100051.53
2022-10-28T16:27:17.376Z,100075.72
2022-10-28T16:29:45.725Z,100036.88
2022-10-28T16:32:15.372Z,100064.50
2022-10-28T16:34:45.471Z,100061.06
2022-10-28T16:37:22.219Z,100048.97
2022-10-28T16:39:50.755Z,100049.88
2022-10-28T16:42:19.549Z,100062.78
2022-10-28T16:44:48.044Z,100056.78
2022-10-28T16:47:17.914Z,100054.19
2022-10-28T16:49:52.609Z,100030.88
2022-10-28T16:52:26.473Z,100042.09
2022-10-28T16:54:54.876Z,100055.03
2022-10-28T16:59:52.588Z,100016.22
2022-10-28T17:02:23.835Z,100042.13
2022-10-28T17:04:53.771Z,100036.94
2022-10-28T17:07:22.157Z,100043.84
2022-10-28T17:09:52.072Z,100040.41
2022-10-28T17:12:23.016Z,99998.13
2022-10-28T17:14:51.461Z,100033.50
2022-10-28T17:17:20.334Z,100037.81
2022-10-28T17:19:48.731Z,100031.78
2022-10-28T17:22:18.543Z,100023.16
2022-10-28T17:24:47.099Z,100032.66
2022-10-28T17:27:15.524Z,100036.97
2022-10-28T17:29:43.923Z,100020.56
2022-10-28T17:32:12.393Z,100020.56
2022-10-28T17:34:40.872Z,100024.88
2022-10-28T17:37:10.520Z,100024.00
2022-10-28T17:39:40.393Z,100017.13
2022-10-28T17:42:08.769Z,100016.25
2022-10-28T17:44:37.385Z,99984.34
2022-10-28T17:47:05.831Z,100011.91
2022-10-28T17:49:36.600Z,100012.81
2022-10-28T17:52:04.999Z,100012.78
2022-10-28T17:54:33.449Z,100001.59
2022-10-28T17:57:03.203Z,99962.78
2022-10-28T17:59:31.810Z,100006.75
2022-10-28T18:02:00.343Z,100005.91
2022-10-28T18:04:28.784Z,100014.50
2022-10-28T18:06:58.284Z,100008.47
2022-10-28T18:09:27.843Z,99997.25
2022-10-28T18:11:56.260Z,100005.00
2022-10-28T18:14:26.038Z,100001.56
2022-10-28T18:16:54.387Z,100001.56
2022-10-28T18:19:22.763Z,100005.03
2022-10-28T18:21:51.174Z,100011.94
2022-10-28T18:24:23.317Z,100007.63
2022-10-28T18:26:56.077Z,100005.88
2022-10-28T18:29:25.939Z,100002.44
2022-10-28T18:31:54.310Z,100002.47
2022-10-28T18:34:23.884Z,100005.88
2022-10-28T18:36:52.969Z,100004.16
2022-10-28T18:39:21.417Z,99979.16
2022-10-28T18:41:52.123Z,100004.16
2022-10-28T18:44:24.311Z,99995.56
2022-10-28T18:46:54.072Z,99995.53
2022-10-28T18:49:22.486Z,99991.22
2022-10-28T18:51:50.944Z,99999.84
2022-10-28T18:54:19.327Z,99993.84
2022-10-28T18:56:48.033Z,99997.28
2022-10-28T18:59:17.483Z,99987.78
2022-10-28T19:01:47.207Z,100002.44
2022-10-28T19:04:17.157Z,100003.31
2022-10-28T19:06:47.073Z,100004.16
2022-10-28T19:09:15.743Z,99994.66
2022-10-28T19:11:46.260Z,99996.41
2022-10-28T19:14:14.718Z,99986.03
2022-10-28T19:16:43.050Z,99974.00
2022-10-28T19:19:11.397Z,100003.31
2022-10-28T19:21:41.105Z,99992.09
2022-10-28T19:24:09.954Z,99978.31
2022-10-28T19:26:39.456Z,100000.72
2022-10-28T19:29:07.892Z,99992.97
2022-10-28T19:31:39.143Z,99989.50
2022-10-28T19:34:07.625Z,99982.59
2022-10-28T19:36:35.954Z,99917.97
2022-10-28T19:39:05.872Z,99961.06
2022-10-28T19:41:34.348Z,99967.09
2022-10-28T19:44:03.554Z,99975.72
2022-10-28T19:46:33.000Z,99986.06
2022-10-28T19:49:03.334Z,99965.38
2022-10-28T19:51:36.128Z,99970.53
2022-10-28T19:54:07.367Z,99967.09
2022-10-28T19:56:36.524Z,99941.25
2022-10-28T19:59:06.301Z,99979.16
2022-10-28T20:01:36.766Z,99980.88
2022-10-28T20:04:05.767Z,99976.59
2022-10-28T20:06:35.704Z,99970.53
2022-10-28T20:09:06.078Z,99966.22
2022-10-28T20:11:36.298Z,99966.22
2022-10-28T20:14:06.354Z,99955.91
2022-10-28T20:16:34.777Z,99960.19
2022-10-28T20:19:03.433Z,99956.72
2022-10-28T20:21:33.400Z,99942.94
2022-10-28T20:24:02.774Z,99957.59
2022-10-28T20:26:34.521Z,99966.22
2022-10-28T20:29:03.354Z,99954.16
2022-10-28T20:31:32.939Z,99928.28
2022-10-28T20:34:03.916Z,99943.78
2022-10-28T20:36:34.061Z,99941.16
2022-10-28T20:39:04.065Z,99915.31
2022-10-28T20:41:35.520Z,99930.81
2022-10-28T20:44:04.095Z,99927.38
2022-10-28T20:46:32.582Z,99909.28
2022-10-28T20:49:01.315Z,99921.31
2022-10-28T20:51:31.378Z,99917.00
2022-10-28T20:53:59.918Z,99883.38
2022-10-28T20:56:30.180Z,99898.03
2022-10-28T20:59:00.425Z,99891.16
2022-10-28T21:01:29.943Z,99891.16
2022-10-28T21:04:00.601Z,99871.34
2022-10-28T21:06:29.485Z,99904.91
2022-10-28T21:08:58.565Z,99908.38
2022-10-28T21:11:27.982Z,99898.88
2022-10-28T21:13:59.400Z,99901.47
2022-10-28T21:16:30.348Z,99898.88
2022-10-28T21:18:59.275Z,99904.94
2022-10-28T21:21:27.789Z,99884.28
2022-10-28T21:23:56.649Z,99863.59
2022-10-28T21:26:26.801Z,99899.75
2022-10-28T21:28:56.574Z,99898.03
2022-10-28T21:31:25.462Z,99875.63
2022-10-28T21:33:55.198Z,99895.44
2022-10-28T21:36:24.380Z,99879.94
2022-10-28T21:38:55.907Z,99888.50
2022-10-28T21:41:25.107Z,99876.44
2022-10-28T21:43:54.484Z,99882.47
2022-10-28T21:46:24.214Z,99880.75
2022-10-28T21:48:55.160Z,99885.94
2022-10-28T21:51:23.681Z,99885.03
2022-10-28T21:53:52.115Z,99865.25
2022-10-28T21:56:21.326Z,99850.59
2022-10-28T21:58:50.659Z,99876.41
2022-10-28T22:01:20.524Z,99859.19
2022-10-28T22:03:49.147Z,99877.25
2022-10-28T22:06:18.963Z,99872.91
2022-10-28T22:08:47.333Z,99869.47
2022-10-28T22:11:17.790Z,99859.13
2022-10-28T22:13:46.474Z,99837.56
2022-10-28T22:16:16.482Z,99859.94
2022-10-28T22:18:45.544Z,99858.22
2022-10-28T22:21:15.295Z,99841.88
2022-10-28T22:23:45.321Z,99859.06
2022-10-28T22:26:15.404Z,99855.66
2022-10-28T22:28:44.240Z,99859.13
2022-10-28T22:31:14.887Z,99839.31
2022-10-28T22:33:43.786Z,99862.56
2022-10-28T22:36:14.017Z,99814.31
2022-10-28T22:38:44.398Z,99784.19
2022-10-28T22:41:14.444Z,99816.03
2022-10-28T22:43:43.698Z,99829.78
2022-10-28T22:46:13.402Z,99810.84
2022-10-28T22:48:42.294Z,99815.16
2022-10-28T22:51:10.949Z,99835.81
2022-10-28T22:53:40.119Z,99828.03
2022-10-28T22:56:13.235Z,99829.78
2022-10-28T22:58:41.611Z,99828.03
2022-10-28T23:01:12.298Z,99831.47
2022-10-28T23:03:42.553Z,99813.41
2022-10-28T23:06:14.876Z,99778.13
2022-10-28T23:08:44.924Z,99813.38
2022-10-28T23:11:15.278Z,99824.59
2022-10-28T23:13:43.841Z,99800.50
2022-10-28T23:16:14.382Z,99797.03
2022-10-28T23:18:49.366Z,99790.19
2022-10-28T23:21:21.165Z,99819.47
2022-10-28T23:23:54.216Z,99785.88
2022-10-28T23:26:24.358Z,99790.22
2022-10-28T23:28:53.656Z,99798.88
2022-10-28T23:31:22.987Z,99817.78
2022-10-28T23:33:51.430Z,99812.63
2022-10-28T23:36:20.911Z,99815.22
2022-10-28T23:38:49.399Z,99809.19
2022-10-28T23:41:19.425Z,99794.56
2022-10-28T23:43:49.965Z,99814.38
2022-10-28T23:46:18.655Z,99770.47
2022-10-28T23:48:48.318Z,99808.38
2022-10-28T23:51:16.705Z,99738.63
2022-10-28T23:53:45.972Z,99802.28
2022-10-28T23:56:14.381Z,99768.75
2022-10-28T23:58:44.173Z,99759.25
